sensor_id;sensor_type;location;lat;lon;timestamp;pressure;altitude;pressure_sealevel;temperature;humidity
20656;BME280;10487;53.320;8.672;2022-09-09T00:02:19;100538.38;;;12.54;58.00
20656;BME280;10487;53.320;8.672;2022-09-09T00:05:29;100540.31;;;12.52;57.86
20656;BME280;10487;53.320;8.672;2022-09-09T00:08:53;100544.06;;;12.49;57.65
20656;BME280;10487;53.320;8.672;2022-09-09T00:12:46;100535.47;;;12.46;57.77
20656;BME280;10487;53.320;8.672;2022-09-09T00:16:04;100532.34;;;12.41;57.77
20656;BME280;10487;53.320;8.672;2022-09-09T00:19:22;100530.06;;;12.36;57.83
20656;BME280;10487;53.320;8.672;2022-09-09T00:22:25;100524.25;;;12.31;57.88
20656;BME280;10487;53.320;8.672;2022-09-09T00:31:57;100531.66;;;12.28;57.76
20656;BME280;10487;53.320;8.672;2022-09-09T00:35:17;100521.13;;;12.26;57.78
20656;BME280;10487;53.320;8.672;2022-09-09T00:47:52;100528.28;;;12.26;58.25
20656;BME280;10487;53.320;8.672;2022-09-09T00:51:02;100524.75;;;12.25;58.05
20656;BME280;10487;53.320;8.672;2022-09-09T00:57:26;100516.41;;;12.19;57.89
20656;BME280;10487;53.320;8.672;2022-09-09T01:00:34;100522.00;;;12.16;58.20
20656;BME280;10487;53.320;8.672;2022-09-09T01:03:43;100535.38;;;12.16;58.02
20656;BME280;10487;53.320;8.672;2022-09-09T01:06:52;100528.31;;;12.15;57.96
20656;BME280;10487;53.320;8.672;2022-09-09T01:10:00;100531.13;;;12.13;57.98
20656;BME280;10487;53.320;8.672;2022-09-09T01:13:22;100529.56;;;12.11;58.10
20656;BME280;10487;53.320;8.672;2022-09-09T01:16:25;100530.81;;;12.07;58.28
20656;BME280;10487;53.320;8.672;2022-09-09T01:19:40;100533.84;;;12.02;58.21
20656;BME280;10487;53.320;8.672;2022-09-09T01:29:08;100513.06;;;11.95;58.12
20656;BME280;10487;53.320;8.672;2022-09-09T01:32:46;100509.81;;;11.91;58.34
20656;BME280;10487;53.320;8.672;2022-09-09T01:35:54;100509.81;;;11.91;58.00
20656;BME280;10487;53.320;8.672;2022-09-09T01:38:57;100512.50;;;11.91;58.37
20656;BME280;10487;53.320;8.672;2022-09-09T01:41:59;100508.00;;;11.92;58.17
20656;BME280;10487;53.320;8.672;2022-09-09T01:45:01;100509.81;;;11.91;58.03
20656;BME280;10487;53.320;8.672;2022-09-09T01:48:03;100508.97;;;11.91;58.24
20656;BME280;10487;53.320;8.672;2022-09-09T01:51:05;100517.97;;;11.90;58.16
20656;BME280;10487;53.320;8.672;2022-09-09T01:54:07;100519.91;;;11.88;58.48
20656;BME280;10487;53.320;8.672;2022-09-09T02:00:50;100513.16;;;11.72;57.97
20656;BME280;10487;53.320;8.672;2022-09-09T02:03:56;100510.53;;;11.61;58.20
20656;BME280;10487;53.320;8.672;2022-09-09T02:07:00;100503.13;;;11.54;58.42
20656;BME280;10487;53.320;8.672;2022-09-09T02:10:09;100498.00;;;11.51;58.23
20656;BME280;10487;53.320;8.672;2022-09-09T02:13:14;100498.13;;;11.49;58.27
20656;BME280;10487;53.320;8.672;2022-09-09T02:16:23;100507.09;;;11.48;58.19
20656;BME280;10487;53.320;8.672;2022-09-09T02:19:32;100511.72;;;11.46;58.35
20656;BME280;10487;53.320;8.672;2022-09-09T02:22:38;100497.66;;;11.44;58.26
20656;BME280;10487;53.320;8.672;2022-09-09T02:25:41;100499.84;;;11.39;58.25
20656;BME280;10487;53.320;8.672;2022-09-09T02:28:45;100486.72;;;11.36;58.54
20656;BME280;10487;53.320;8.672;2022-09-09T02:31:49;100483.34;;;11.34;58.61
20656;BME280;10487;53.320;8.672;2022-09-09T02:34:55;100486.97;;;11.33;58.57
20656;BME280;10487;53.320;8.672;2022-09-09T02:38:01;100492.22;;;11.35;58.34
20656;BME280;10487;53.320;8.672;2022-09-09T02:41:05;100493.03;;;11.35;58.34
20656;BME280;10487;53.320;8.672;2022-09-09T02:44:12;100490.25;;;11.37;58.34
20656;BME280;10487;53.320;8.672;2022-09-09T02:47:35;100489.41;;;11.36;58.48
20656;BME280;10487;53.320;8.672;2022-09-09T02:51:04;100485.28;;;11.32;58.35
20656;BME280;10487;53.320;8.672;2022-09-09T02:54:30;100485.78;;;11.26;58.33
20656;BME280;10487;53.320;8.672;2022-09-09T02:57:33;100487.00;;;11.22;58.47
20656;BME280;10487;53.320;8.672;2022-09-09T03:00:35;100481.06;;;11.18;58.51
20656;BME280;10487;53.320;8.672;2022-09-09T03:03:37;100484.69;;;11.17;58.25
20656;BME280;10487;53.320;8.672;2022-09-09T03:06:39;100487.47;;;11.16;58.66
20656;BME280;10487;53.320;8.672;2022-09-09T03:09:41;100491.00;;;11.16;58.42
20656;BME280;10487;53.320;8.672;2022-09-09T03:12:43;100484.22;;;11.12;58.44
20656;BME280;10487;53.320;8.672;2022-09-09T03:15:45;100496.00;;;11.10;58.51
20656;BME280;10487;53.320;8.672;2022-09-09T03:18:46;100494.28;;;11.09;58.62
20656;BME280;10487;53.320;8.672;2022-09-09T03:21:48;100497.91;;;11.08;58.53
20656;BME280;10487;53.320;8.672;2022-09-09T03:24:51;100504.25;;;11.07;58.60
20656;BME280;10487;53.320;8.672;2022-09-09T03:27:53;100511.41;;;11.06;58.48
20656;BME280;10487;53.320;8.672;2022-09-09T03:30:58;100504.25;;;11.07;58.60
20656;BME280;10487;53.320;8.672;2022-09-09T03:34:00;100502.44;;;11.07;58.56
20656;BME280;10487;53.320;8.672;2022-09-09T03:37:02;100505.09;;;11.07;58.67
20656;BME280;10487;53.320;8.672;2022-09-09T03:40:03;100513.13;;;11.07;58.66
20656;BME280;10487;53.320;8.672;2022-09-09T03:43:05;100516.59;;;11.08;58.40
20656;BME280;10487;53.320;8.672;2022-09-09T03:46:07;100520.13;;;11.08;58.42
20656;BME280;10487;53.320;8.672;2022-09-09T03:49:09;100512.97;;;11.09;58.44
20656;BME280;10487;53.320;8.672;2022-09-09T03:52:12;100512.84;;;11.10;58.57
20656;BME280;10487;53.320;8.672;2022-09-09T03:55:13;100516.28;;;11.12;58.66
20656;BME280;10487;53.320;8.672;2022-09-09T03:58:16;100517.00;;;11.14;58.62
20656;BME280;10487;53.320;8.672;2022-09-09T04:01:19;100513.34;;;11.15;58.73
20656;BME280;10487;53.320;8.672;2022-09-09T04:04:21;100513.22;;;11.17;58.65
20656;BME280;10487;53.320;8.672;2022-09-09T04:07:23;100519.28;;;11.19;58.57
20656;BME280;10487;53.320;8.672;2022-09-09T04:10:25;100520.16;;;11.19;58.67
20656;BME280;10487;53.320;8.672;2022-09-09T04:13:27;100520.72;;;11.23;58.69
20656;BME280;10487;53.320;8.672;2022-09-09T04:16:28;100522.31;;;11.26;58.83
20656;BME280;10487;53.320;8.672;2022-09-09T04:19:30;100517.59;;;11.29;58.70
20656;BME280;10487;53.320;8.672;2022-09-09T04:22:32;100526.19;;;11.33;58.91
20656;BME280;10487;53.320;8.672;2022-09-09T04:25:35;100526.81;;;11.36;58.86
20656;BME280;10487;53.320;8.672;2022-09-09T04:28:37;100524.75;;;11.40;58.64
20656;BME280;10487;53.320;8.672;2022-09-09T04:31:39;100520.00;;;11.43;58.79
20656;BME280;10487;53.320;8.672;2022-09-09T04:34:43;100529.44;;;11.47;58.75
20656;BME280;10487;53.320;8.672;2022-09-09T04:37:46;100527.53;;;11.49;58.89
20656;BME280;10487;53.320;8.672;2022-09-09T04:40:49;100541.50;;;11.53;58.66
20656;BME280;10487;53.320;8.672;2022-09-09T04:43:51;100539.53;;;11.55;58.88
20656;BME280;10487;53.320;8.672;2022-09-09T04:46:54;100534.81;;;11.58;58.97
20656;BME280;10487;53.320;8.672;2022-09-09T04:49:56;100538.94;;;11.62;58.89
20656;BME280;10487;53.320;8.672;2022-09-09T04:53:02;100537.00;;;11.64;58.94
20656;BME280;10487;53.320;8.672;2022-09-09T04:56:12;100542.06;;;11.67;58.92
20656;BME280;10487;53.320;8.672;2022-09-09T04:59:13;100550.00;;;11.69;58.81
20656;BME280;10487;53.320;8.672;2022-09-09T05:02:15;100553.38;;;11.71;59.02
20656;BME280;10487;53.320;8.672;2022-09-09T05:05:17;100554.00;;;11.74;58.86
20656;BME280;10487;53.320;8.672;2022-09-09T05:08:19;100556.66;;;11.74;59.01
20656;BME280;10487;53.320;8.672;2022-09-09T05:11:27;100555.66;;;11.75;58.85
20656;BME280;10487;53.320;8.672;2022-09-09T05:14:29;100550.22;;;11.77;59.12
20656;BME280;10487;53.320;8.672;2022-09-09T05:17:31;100549.09;;;11.79;59.13
20656;BME280;10487;53.320;8.672;2022-09-09T05:20:33;100555.19;;;11.81;58.97
20656;BME280;10487;53.320;8.672;2022-09-09T05:23:35;100551.53;;;11.82;59.01
20656;BME280;10487;53.320;8.672;2022-09-09T05:26:37;100560.00;;;11.88;59.19
20656;BME280;10487;53.320;8.672;2022-09-09T05:29:39;100560.09;;;11.97;59.29
20656;BME280;10487;53.320;8.672;2022-09-09T05:32:42;100564.81;;;12.05;59.15
20656;BME280;10487;53.320;8.672;2022-09-09T05:35:44;100568.56;;;12.13;59.27
20656;BME280;10487;53.320;8.672;2022-09-09T05:38:46;100573.28;;;12.21;59.48
20656;BME280;10487;53.320;8.672;2022-09-09T05:41:48;100581.63;;;12.27;59.58
20656;BME280;10487;53.320;8.672;2022-09-09T05:44:49;100579.31;;;12.34;59.38
20656;BME280;10487;53.320;8.672;2022-09-09T05:47:52;100579.78;;;12.39;59.25
20656;BME280;10487;53.320;8.672;2022-09-09T05:50:56;100574.88;;;12.44;59.17
20656;BME280;10487;53.320;8.672;2022-09-09T05:53:58;100572.81;;;12.47;59.19
20656;BME280;10487;53.320;8.672;2022-09-09T05:57:00;100574.22;;;12.52;59.47
20656;BME280;10487;53.320;8.672;2022-09-09T06:00:02;100571.34;;;12.55;59.48
20656;BME280;10487;53.320;8.672;2022-09-09T06:03:04;100573.63;;;12.59;59.49
20656;BME280;10487;53.320;8.672;2022-09-09T06:06:08;100582.09;;;12.64;59.07
20656;BME280;10487;53.320;8.672;2022-09-09T06:09:10;100585.25;;;12.69;59.10
20656;BME280;10487;53.320;8.672;2022-09-09T06:12:12;100587.66;;;12.72;59.36
20656;BME280;10487;53.320;8.672;2022-09-09T06:15:15;100584.72;;;12.75;59.41
20656;BME280;10487;53.320;8.672;2022-09-09T06:18:18;100585.19;;;12.80;59.15
20656;BME280;10487;53.320;8.672;2022-09-09T06:21:22;100584.78;;;12.85;59.11
20656;BME280;10487;53.320;8.672;2022-09-09T06:24:24;100594.41;;;12.87;59.44
20656;BME280;10487;53.320;8.672;2022-09-09T06:27:27;100594.00;;;12.92;59.46
20656;BME280;10487;53.320;8.672;2022-09-09T06:30:29;100591.31;;;12.92;59.37
20656;BME280;10487;53.320;8.672;2022-09-09T06:33:34;100593.59;;;12.96;59.41
20656;BME280;10487;53.320;8.672;2022-09-09T06:36:37;100593.34;;;12.99;59.07
20656;BME280;10487;53.320;8.672;2022-09-09T06:39:40;100586.75;;;13.03;59.12
20656;BME280;10487;53.320;8.672;2022-09-09T06:42:41;100582.97;;;13.06;59.14
20656;BME280;10487;53.320;8.672;2022-09-09T06:45:43;100584.63;;;13.07;59.34
20656;BME280;10487;53.320;8.672;2022-09-09T06:48:46;100595.22;;;13.08;59.48
20656;BME280;10487;53.320;8.672;2022-09-09T06:51:47;100589.75;;;13.10;59.11
20656;BME280;10487;53.320;8.672;2022-09-09T06:54:49;100592.28;;;13.11;59.35
20656;BME280;10487;53.320;8.672;2022-09-09T06:57:51;100592.28;;;13.11;59.31
20656;BME280;10487;53.320;8.672;2022-09-09T07:01:02;100594.69;;;13.15;59.33
20656;BME280;10487;53.320;8.672;2022-09-09T07:04:04;100592.72;;;13.17;59.11
20656;BME280;10487;53.320;8.672;2022-09-09T07:07:08;100596.00;;;13.20;59.32
20656;BME280;10487;53.320;8.672;2022-09-09T07:10:11;100591.50;;;13.21;59.26
20656;BME280;10487;53.320;8.672;2022-09-09T07:13:13;100592.06;;;13.24;59.23
20656;BME280;10487;53.320;8.672;2022-09-09T07:16:19;100590.69;;;13.30;59.10
20656;BME280;10487;53.320;8.672;2022-09-09T07:19:21;100593.81;;;13.35;59.23
20656;BME280;10487;53.320;8.672;2022-09-09T07:22:23;100597.66;;;13.42;59.36
20656;BME280;10487;53.320;8.672;2022-09-09T07:25:25;100597.97;;;13.48;59.17
20656;BME280;10487;53.320;8.672;2022-09-09T07:28:29;100597.03;;;13.59;59.17
20656;BME280;10487;53.320;8.672;2022-09-09T07:31:35;100599.63;;;13.70;59.20
20656;BME280;10487;53.320;8.672;2022-09-09T07:34:37;100609.09;;;13.84;59.45
20656;BME280;10487;53.320;8.672;2022-09-09T07:37:39;100593.78;;;13.95;59.46
20656;BME280;10487;53.320;8.672;2022-09-09T07:40:41;100597.44;;;14.04;59.49
20656;BME280;10487;53.320;8.672;2022-09-09T07:43:44;100597.44;;;14.13;59.31
20656;BME280;10487;53.320;8.672;2022-09-09T07:46:47;100600.44;;;14.20;59.40
20656;BME280;10487;53.320;8.672;2022-09-09T07:49:48;100613.28;;;14.26;59.47
20656;BME280;10487;53.320;8.672;2022-09-09T07:52:52;100610.91;;;14.32;59.48
20656;BME280;10487;53.320;8.672;2022-09-09T07:55:54;100615.72;;;14.38;59.13
20656;BME280;10487;53.320;8.672;2022-09-09T07:58:57;100611.66;;;14.44;59.27
20656;BME280;10487;53.320;8.672;2022-09-09T08:02:00;100621.09;;;14.48;59.02
20656;BME280;10487;53.320;8.672;2022-09-09T08:05:02;100616.31;;;14.52;59.22
20656;BME280;10487;53.320;8.672;2022-09-09T08:08:04;100607.25;;;14.53;58.96
20656;BME280;10487;53.320;8.672;2022-09-09T08:14:09;100609.66;;;14.56;59.05
20656;BME280;10487;53.320;8.672;2022-09-09T08:17:11;100612.22;;;14.57;59.06
20656;BME280;10487;53.320;8.672;2022-09-09T08:20:13;100611.38;;;14.57;59.31
20656;BME280;10487;53.320;8.672;2022-09-09T08:23:14;100603.31;;;14.57;59.21
20656;BME280;10487;53.320;8.672;2022-09-09T08:26:19;100607.56;;;14.59;59.19
20656;BME280;10487;53.320;8.672;2022-09-09T08:29:23;100603.84;;;14.70;59.28
20656;BME280;10487;53.320;8.672;2022-09-09T08:32:25;100604.13;;;14.86;59.21
20656;BME280;10487;53.320;8.672;2022-09-09T08:35:27;100615.56;;;14.97;59.06
20656;BME280;10487;53.320;8.672;2022-09-09T08:38:34;100612.84;;;15.07;58.97
20656;BME280;10487;53.320;8.672;2022-09-09T08:51:09;100629.34;;;15.41;58.87
20656;BME280;10487;53.320;8.672;2022-09-09T08:54:11;100629.31;;;15.50;58.89
20656;BME280;10487;53.320;8.672;2022-09-09T08:57:32;100632.97;;;15.59;58.79
20656;BME280;10487;53.320;8.672;2022-09-09T09:00:47;100626.13;;;15.64;58.75
20656;BME280;10487;53.320;8.672;2022-09-09T09:10:47;100634.25;;;15.82;58.67
20656;BME280;10487;53.320;8.672;2022-09-09T09:13:52;100630.81;;;15.90;58.67
20656;BME280;10487;53.320;8.672;2022-09-09T09:19:59;100629.91;;;15.99;58.64
20656;BME280;10487;53.320;8.672;2022-09-09T09:23:03;100625.69;;;16.06;58.57
20656;BME280;10487;53.320;8.672;2022-09-09T09:26:09;100634.66;;;16.14;58.56
20656;BME280;10487;53.320;8.672;2022-09-09T09:29:15;100632.94;;;16.23;58.50
20656;BME280;10487;53.320;8.672;2022-09-09T09:32:19;100629.78;;;16.27;58.59
20656;BME280;10487;53.320;8.672;2022-09-09T09:35:22;100637.38;;;16.32;58.36
20656;BME280;10487;53.320;8.672;2022-09-09T09:38:27;100644.16;;;16.36;58.28
20656;BME280;10487;53.320;8.672;2022-09-09T09:41:49;100645.56;;;16.40;58.50
20656;BME280;10487;53.320;8.672;2022-09-09T09:44:51;100647.63;;;16.46;58.45
20656;BME280;10487;53.320;8.672;2022-09-09T09:48:06;100644.88;;;16.56;58.56
20656;BME280;10487;53.320;8.672;2022-09-09T09:51:22;100640.78;;;16.69;58.15
20656;BME280;10487;53.320;8.672;2022-09-09T09:54:31;100648.31;;;16.83;58.34
20656;BME280;10487;53.320;8.672;2022-09-09T09:57:34;100649.66;;;16.97;58.37
20656;BME280;10487;53.320;8.672;2022-09-09T10:00:47;100644.84;;;17.09;57.89
20656;BME280;10487;53.320;8.672;2022-09-09T10:03:55;100646.91;;;17.15;57.94
20656;BME280;10487;53.320;8.672;2022-09-09T10:07:10;100639.72;;;17.23;57.94
20656;BME280;10487;53.320;8.672;2022-09-09T10:10:21;100646.53;;;17.35;57.64
20656;BME280;10487;53.320;8.672;2022-09-09T10:13:34;100645.41;;;17.46;58.06
20656;BME280;10487;53.320;8.672;2022-09-09T10:20:04;100644.13;;;17.84;58.00
20656;BME280;10487;53.320;8.672;2022-09-09T10:23:41;100644.41;;;18.06;57.40
20656;BME280;10487;53.320;8.672;2022-09-09T10:29:59;100631.03;;;18.47;57.13
20656;BME280;10487;53.320;8.672;2022-09-09T10:33:10;100639.81;;;18.65;57.46
20656;BME280;10487;53.320;8.672;2022-09-09T10:36:23;100633.94;;;18.86;57.00
20656;BME280;10487;53.320;8.672;2022-09-09T10:39:39;100628.34;;;19.03;56.82
20656;BME280;10487;53.320;8.672;2022-09-09T10:42:44;100627.16;;;19.22;56.65
20656;BME280;10487;53.320;8.672;2022-09-09T10:56:08;100639.53;;;19.87;56.35
20656;BME280;10487;53.320;8.672;2022-09-09T10:59:16;100631.53;;;19.94;56.50
20656;BME280;10487;53.320;8.672;2022-09-09T11:02:31;100621.31;;;20.04;56.40
20656;BME280;10487;53.320;8.672;2022-09-09T11:05:46;100631.13;;;20.13;56.24
20656;BME280;10487;53.320;8.672;2022-09-09T11:08:51;100629.75;;;20.09;56.10
20656;BME280;10487;53.320;8.672;2022-09-09T11:11:58;100636.56;;;20.05;55.97
20656;BME280;10487;53.320;8.672;2022-09-09T11:15:36;100631.19;;;19.97;55.95
20656;BME280;10487;53.320;8.672;2022-09-09T11:18:42;100629.88;;;19.93;56.04
20656;BME280;10487;53.320;8.672;2022-09-09T11:21:49;100635.94;;;19.95;56.26
20656;BME280;10487;53.320;8.672;2022-09-09T11:25:00;100634.22;;;19.94;55.93
20656;BME280;10487;53.320;8.672;2022-09-09T11:32:00;100640.38;;;19.72;55.75
20656;BME280;10487;53.320;8.672;2022-09-09T11:38:31;100639.25;;;19.58;55.72
20656;BME280;10487;53.320;8.672;2022-09-09T11:41:37;100644.50;;;19.52;55.83
20656;BME280;10487;53.320;8.672;2022-09-09T11:44:39;100644.69;;;19.42;56.00
20656;BME280;10487;53.320;8.672;2022-09-09T11:47:51;100641.19;;;19.33;55.76
20656;BME280;10487;53.320;8.672;2022-09-09T11:51:02;100649.31;;;19.25;55.59
20656;BME280;10487;53.320;8.672;2022-09-09T11:54:28;100645.59;;;19.18;55.91
20656;BME280;10487;53.320;8.672;2022-09-09T11:57:33;100637.81;;;19.15;55.58
20656;BME280;10487;53.320;8.672;2022-09-09T12:00:41;100630.38;;;19.17;55.58
20656;BME280;10487;53.320;8.672;2022-09-09T12:03:50;100634.41;;;19.21;55.64
20656;BME280;10487;53.320;8.672;2022-09-09T12:10:27;100626.75;;;19.49;55.52
20656;BME280;10487;53.320;8.672;2022-09-09T12:13:30;100628.25;;;19.60;55.44
20656;BME280;10487;53.320;8.672;2022-09-09T12:16:35;100636.16;;;19.69;55.27
20656;BME280;10487;53.320;8.672;2022-09-09T12:19:38;100632.59;;;19.69;55.44
20656;BME280;10487;53.320;8.672;2022-09-09T12:29:48;100627.88;;;19.79;55.42
20656;BME280;10487;53.320;8.672;2022-09-09T12:33:02;100630.91;;;19.76;55.30
20656;BME280;10487;53.320;8.672;2022-09-09T12:36:15;100636.16;;;19.69;55.09
20656;BME280;10487;53.320;8.672;2022-09-09T12:39:27;100636.69;;;19.65;55.17
20656;BME280;10487;53.320;8.672;2022-09-09T12:42:32;100636.72;;;19.57;55.22
20656;BME280;10487;53.320;8.672;2022-09-09T12:45:41;100642.16;;;19.49;54.93
20656;BME280;10487;53.320;8.672;2022-09-09T12:48:44;100646.41;;;19.43;55.26
20656;BME280;10487;53.320;8.672;2022-09-09T12:51:47;100638.97;;;19.37;55.43
20656;BME280;10487;53.320;8.672;2022-09-09T12:54:48;100633.22;;;19.32;55.04
20656;BME280;10487;53.320;8.672;2022-09-09T12:57:52;100622.94;;;19.27;55.24
20656;BME280;10487;53.320;8.672;2022-09-09T13:00:56;100628.19;;;19.21;55.19
20656;BME280;10487;53.320;8.672;2022-09-09T13:03:59;100633.28;;;19.16;55.33
20656;BME280;10487;53.320;8.672;2022-09-09T13:07:07;100633.59;;;19.13;55.39
20656;BME280;10487;53.320;8.672;2022-09-09T13:10:13;100633.78;;;19.11;54.98
20656;BME280;10487;53.320;8.672;2022-09-09T13:13:28;100631.41;;;19.08;55.00
20656;BME280;10487;53.320;8.672;2022-09-09T13:16:34;100634.09;;;19.00;54.88
20656;BME280;10487;53.320;8.672;2022-09-09T13:19:44;100638.47;;;18.85;55.06
20656;BME280;10487;53.320;8.672;2022-09-09T13:22:48;100642.88;;;18.70;55.45
20656;BME280;10487;53.320;8.672;2022-09-09T13:26:05;100646.59;;;18.61;55.05
20656;BME280;10487;53.320;8.672;2022-09-09T13:29:17;100648.25;;;18.54;54.96
20656;BME280;10487;53.320;8.672;2022-09-09T13:32:19;100635.41;;;18.48;55.26
20656;BME280;10487;53.320;8.672;2022-09-09T13:35:23;100641.31;;;18.43;55.04
20656;BME280;10487;53.320;8.672;2022-09-09T13:38:27;100649.94;;;18.39;55.13
20656;BME280;10487;53.320;8.672;2022-09-09T13:41:32;100651.22;;;18.35;54.94
20656;BME280;10487;53.320;8.672;2022-09-09T13:44:38;100652.56;;;18.31;55.13
20656;BME280;10487;53.320;8.672;2022-09-09T13:47:40;100640.25;;;18.28;55.15
20656;BME280;10487;53.320;8.672;2022-09-09T13:50:54;100641.22;;;18.27;55.11
20656;BME280;10487;53.320;8.672;2022-09-09T13:53:55;100645.47;;;18.22;55.30
20656;BME280;10487;53.320;8.672;2022-09-09T13:56:59;100658.97;;;18.22;55.35
20656;BME280;10487;53.320;8.672;2022-09-09T14:00:01;100667.22;;;18.20;55.08
20656;BME280;10487;53.320;8.672;2022-09-09T14:03:06;100678.88;;;18.20;55.39
20656;BME280;10487;53.320;8.672;2022-09-09T14:06:10;100679.72;;;18.21;55.34
20656;BME280;10487;53.320;8.672;2022-09-09T14:09:14;100681.41;;;18.22;55.36
20656;BME280;10487;53.320;8.672;2022-09-09T14:12:17;100668.06;;;18.20;55.01
20656;BME280;10487;53.320;8.672;2022-09-09T14:15:19;100666.34;;;18.11;55.08
20656;BME280;10487;53.320;8.672;2022-09-09T14:18:21;100657.53;;;18.01;55.04
20656;BME280;10487;53.320;8.672;2022-09-09T14:21:25;100666.78;;;17.91;55.17
20656;BME280;10487;53.320;8.672;2022-09-09T14:24:27;100660.81;;;17.79;55.52
20656;BME280;10487;53.320;8.672;2022-09-09T14:27:32;100662.44;;;17.64;55.40
20656;BME280;10487;53.320;8.672;2022-09-09T14:30:34;100657.91;;;17.47;55.69
20656;BME280;10487;53.320;8.672;2022-09-09T14:33:35;100654.97;;;17.32;55.46
20656;BME280;10487;53.320;8.672;2022-09-09T14:36:37;100649.69;;;17.23;55.62
20656;BME280;10487;53.320;8.672;2022-09-09T14:39:39;100655.00;;;17.15;55.89
20656;BME280;10487;53.320;8.672;2022-09-09T14:42:41;100653.59;;;17.11;55.65
20656;BME280;10487;53.320;8.672;2022-09-09T14:45:42;100652.53;;;17.04;56.07
20656;BME280;10487;53.320;8.672;2022-09-09T14:48:45;100643.56;;;16.95;56.12
20656;BME280;10487;53.320;8.672;2022-09-09T14:51:50;100642.66;;;16.86;55.83
20656;BME280;10487;53.320;8.672;2022-09-09T14:54:51;100638.16;;;16.77;56.18
20656;BME280;10487;53.320;8.672;2022-09-09T14:57:53;100631.72;;;16.70;56.14
20656;BME280;10487;53.320;8.672;2022-09-09T15:00:55;100634.16;;;16.64;56.14
20656;BME280;10487;53.320;8.672;2022-09-09T15:04:02;100632.09;;;16.58;56.24
20656;BME280;10487;53.320;8.672;2022-09-09T15:07:04;100634.53;;;16.51;56.12
20656;BME280;10487;53.320;8.672;2022-09-09T15:10:06;100627.09;;;16.45;56.13
20656;BME280;10487;53.320;8.672;2022-09-09T15:13:08;100626.72;;;16.40;56.43
20656;BME280;10487;53.320;8.672;2022-09-09T15:16:15;100619.78;;;16.38;56.11
20656;BME280;10487;53.320;8.672;2022-09-09T15:19:17;100615.69;;;16.34;56.33
20656;BME280;10487;53.320;8.672;2022-09-09T15:22:19;100616.16;;;16.29;56.33
20656;BME280;10487;53.320;8.672;2022-09-09T15:25:21;100622.56;;;16.28;56.26
20656;BME280;10487;53.320;8.672;2022-09-09T15:28:23;100618.31;;;16.25;56.45
20656;BME280;10487;53.320;8.672;2022-09-09T15:31:27;100619.59;;;16.21;56.36
20656;BME280;10487;53.320;8.672;2022-09-09T15:34:33;100612.69;;;16.19;56.74
20656;BME280;10487;53.320;8.672;2022-09-09T15:37:34;100609.75;;;16.12;56.52
20656;BME280;10487;53.320;8.672;2022-09-09T15:40:36;100605.34;;;16.11;56.70
20656;BME280;10487;53.320;8.672;2022-09-09T15:43:38;100603.81;;;16.09;56.78
20656;BME280;10487;53.320;8.672;2022-09-09T15:46:42;100598.44;;;16.09;56.82
20656;BME280;10487;53.320;8.672;2022-09-09T15:49:44;100603.97;;;16.07;56.81
20656;BME280;10487;53.320;8.672;2022-09-09T15:52:47;100601.13;;;16.09;56.72
20656;BME280;10487;53.320;8.672;2022-09-09T15:55:54;100607.66;;;16.06;56.65
20656;BME280;10487;53.320;8.672;2022-09-09T15:58:58;100612.22;;;16.06;57.01
20656;BME280;10487;53.320;8.672;2022-09-09T16:02:00;100611.47;;;16.04;56.91
20656;BME280;10487;53.320;8.672;2022-09-09T16:05:03;100616.84;;;16.04;57.03
20656;BME280;10487;53.320;8.672;2022-09-09T16:08:04;100608.78;;;16.04;56.88
20656;BME280;10487;53.320;8.672;2022-09-09T16:11:13;100607.94;;;16.03;56.90
20656;BME280;10487;53.320;8.672;2022-09-09T16:14:16;100604.41;;;16.03;57.02
20656;BME280;10487;53.320;8.672;2022-09-09T16:17:18;100605.69;;;15.99;57.13
20656;BME280;10487;53.320;8.672;2022-09-09T16:20:21;100605.84;;;15.97;57.13
20656;BME280;10487;53.320;8.672;2022-09-09T16:23:23;100612.25;;;15.96;56.96
20656;BME280;10487;53.320;8.672;2022-09-09T16:26:26;100616.91;;;15.94;57.19
20656;BME280;10487;53.320;8.672;2022-09-09T16:29:29;100618.78;;;15.94;57.07
20656;BME280;10487;53.320;8.672;2022-09-09T16:32:30;100623.16;;;15.95;57.01
20656;BME280;10487;53.320;8.672;2022-09-09T16:35:36;100626.00;;;15.93;57.12
20656;BME280;10487;53.320;8.672;2022-09-09T16:38:38;100630.81;;;15.90;57.31
20656;BME280;10487;53.320;8.672;2022-09-09T16:41:41;100619.38;;;15.88;57.23
20656;BME280;10487;53.320;8.672;2022-09-09T16:44:45;100628.41;;;15.87;57.25
20656;BME280;10487;53.320;8.672;2022-09-09T16:47:47;100634.81;;;15.86;57.19
20656;BME280;10487;53.320;8.672;2022-09-09T16:50:50;100642.19;;;15.84;57.22
20656;BME280;10487;53.320;8.672;2022-09-09T16:53:53;100643.19;;;15.83;57.18
20656;BME280;10487;53.320;8.672;2022-09-09T16:56:55;100646.03;;;15.81;57.27
20656;BME280;10487;53.320;8.672;2022-09-09T16:59:56;100642.78;;;15.78;57.25
20656;BME280;10487;53.320;8.672;2022-09-09T17:03:00;100653.69;;;15.76;57.25
20656;BME280;10487;53.320;8.672;2022-09-09T17:06:03;100661.03;;;15.74;57.36
20656;BME280;10487;53.320;8.672;2022-09-09T17:09:10;100667.72;;;15.70;57.59
20656;BME280;10487;53.320;8.672;2022-09-09T17:12:12;100677.63;;;15.70;57.46
20656;BME280;10487;53.320;8.672;2022-09-09T17:15:14;100680.31;;;15.70;57.30
20656;BME280;10487;53.320;8.672;2022-09-09T17:18:16;100678.66;;;15.69;57.37
20656;BME280;10487;53.320;8.672;2022-09-09T17:21:21;100686.72;;;15.69;57.36
20656;BME280;10487;53.320;8.672;2022-09-09T17:24:23;100675.22;;;15.66;57.48
20656;BME280;10487;53.320;8.672;2022-09-09T17:27:25;100681.78;;;15.64;57.51
20656;BME280;10487;53.320;8.672;2022-09-09T17:30:26;100681.06;;;15.62;57.69
20656;BME280;10487;53.320;8.672;2022-09-09T17:33:29;100699.34;;;15.58;57.71
20656;BME280;10487;53.320;8.672;2022-09-09T17:36:35;100705.69;;;15.57;57.61